Time;durP1;ratioP1;P1;durP2;ratioP2;P2;SDS_P1;SDS_P2;PMS_P1;PMS_P2;Temp;Humidity;BMP_temperature;BMP_pressure;BME280_temperature;BME280_humidity;BME280_pressure;Samples;Min_cycle;Max_cycle;Signal;HPM_P1;HPM_P2
2023/03/11 00:01:17;;;;;;;;;;;7.00;87.20;;;-151.14;100.00;62537.16;5054800;28;19921;-83
2023/03/11 00:03:48;;;;;;;;;;;7.00;87.20;;;18.08;100.00;62537.16;5070942;28;19921;-83
2023/03/11 00:06:16;;;;;;;;;;;7.00;87.10;;;-151.14;100.00;62537.16;5071435;28;19921;-83
2023/03/11 00:08:43;;;;;;;;;;;7.00;87.30;;;-151.14;100.00;62537.16;5054423;28;19920;-83
2023/03/11 00:11:11;;;;;;;;;;;7.00;87.20;;;-151.14;100.00;62537.16;5071287;28;19921;-83
2023/03/11 00:13:40;;;;;;;;;;;7.00;87.30;;;-151.14;100.00;62537.16;5070778;28;19927;-83
2023/03/11 00:16:07;;;;;;;;;;;7.00;87.20;;;-151.14;100.00;62537.16;5071204;28;19921;-83
2023/03/11 00:18:35;;;;;;;;;;;7.00;87.20;;;-151.14;100.00;62537.16;5071092;28;20119;-83
2023/03/11 00:21:05;;;;;;;;;;;7.00;87.20;;;-151.14;100.00;62537.16;5071149;28;19920;-83
2023/03/11 00:23:34;;;;;;;;;;;7.00;87.20;;;-151.14;100.00;62537.16;5071628;28;19920;-83
2023/03/11 00:26:02;;;;;;;;;;;7.00;87.20;;;-151.14;100.00;62537.16;5071294;28;19921;-83
2023/03/11 00:28:30;;;;;;;;;;;7.00;87.30;;;-151.14;100.00;62537.16;5070877;28;19920;-83
2023/03/11 00:30:58;;;;;;;;;;;7.00;87.30;;;-151.14;100.00;62537.16;5070963;28;20212;-83
2023/03/11 00:33:27;;;;;;;;;;;7.00;87.20;;;-151.14;100.00;62537.16;5087175;28;19927;-83
2023/03/11 00:35:55;;;;;;;;;;;7.00;87.30;;;-151.14;100.00;62537.16;5054189;28;19920;-83
2023/03/11 00:38:25;;;;;;;;;;;7.00;87.30;;;-151.14;100.00;62537.16;5070516;28;19926;-82
2023/03/11 00:40:53;;;;;;;;;;;7.00;87.30;;;-151.14;100.00;62537.16;5054458;28;20115;-83
2023/03/11 00:43:21;;;;;;;;;;;7.00;87.30;;;-151.14;100.00;62537.16;5070303;28;19927;-83
2023/03/11 00:45:49;;;;;;;;;;;7.00;87.30;;;-151.14;100.00;62537.16;5069778;28;19921;-83
2023/03/11 00:48:16;;;;;;;;;;;7.00;87.30;;;-151.14;100.00;62537.16;5054067;28;19942;-83
2023/03/11 00:50:45;;;;;;;;;;;7.00;87.20;;;-151.14;100.00;62537.16;5087573;28;20207;-83
2023/03/11 00:53:12;;;;;;;;;;;7.00;87.30;;;-151.14;100.00;62537.16;5053439;28;19927;-83
2023/03/11 00:55:42;;;;;;;;;;;7.00;87.30;;;-151.14;100.00;62537.16;5053738;28;19927;-83
2023/03/11 00:58:12;;;;;;;;;;;7.00;87.30;;;5.76;100.00;62537.16;5070552;28;20416;-83
2023/03/11 01:00:54;;;;;;;;;;;7.00;87.30;;;-151.14;100.00;62537.16;5070576;28;19927;-83
2023/03/11 01:03:22;;;;;;;;;;;7.00;87.40;;;-151.14;100.00;62537.16;5053272;28;19921;-83
2023/03/11 01:05:50;;;;;;;;;;;7.00;87.40;;;-151.14;100.00;62537.16;5070570;28;19927;-83
2023/03/11 01:08:18;;;;;;;;;;;7.00;87.40;;;-151.14;100.00;62537.16;5087364;28;20111;-83
2023/03/11 01:10:48;;;;;;;;;;;7.00;87.50;;;-151.14;100.00;62537.16;5053756;28;19921;-83
2023/03/11 01:13:16;;;;;;;;;;;7.00;87.40;;;-151.14;100.00;62537.16;5086771;28;19920;-82
2023/03/11 01:15:43;;;;;;;;;;;7.00;87.40;;;-151.14;100.00;62537.16;5071518;28;19920;-82
2023/03/11 01:18:12;;;;;;;;;;;7.00;87.40;;;-151.14;100.00;62537.16;5053795;28;20123;-82
2023/03/11 01:20:40;;;;;;;;;;;7.00;87.40;;;-151.14;100.00;62537.16;5070229;28;19920;-82
2023/03/11 01:23:08;;;;;;;;;;;7.00;87.40;;;-151.14;100.00;62537.16;5053017;28;19920;-83
2023/03/11 01:25:36;;;;;;;;;;;7.00;87.40;;;-151.14;100.00;62537.16;5070164;28;19927;-82
2023/03/11 01:28:07;;;;;;;;;;;7.00;87.40;;;-151.14;100.00;62537.16;5053461;28;19934;-82
2023/03/11 01:30:35;;;;;;;;;;;7.00;87.40;;;-151.14;100.00;62537.16;5053513;28;19920;-83
2023/03/11 01:33:03;;;;;;;;;;;7.00;87.40;;;-151.14;100.00;62537.16;5053063;28;20131;-83
2023/03/11 01:35:32;;;;;;;;;;;7.00;87.40;;;-151.14;100.00;62537.16;5053285;28;19927;-83
2023/03/11 01:38:00;;;;;;;;;;;7.00;87.40;;;-151.14;100.00;62537.16;5070035;28;19927;-82
2023/03/11 01:40:29;;;;;;;;;;;7.00;87.40;;;-151.14;100.00;62537.16;5069904;28;19927;-83
2023/03/11 01:42:59;;;;;;;;;;;7.00;87.40;;;-151.14;100.00;62537.16;5069558;28;19921;-82
2023/03/11 01:45:40;;;;;;;;;;;7.00;87.40;;;-151.14;100.00;62537.16;5081220;28;19920;-83
2023/03/11 01:48:09;;;;;;;;;;;7.00;87.40;;;-151.14;100.00;62537.16;5073312;28;20209;-83
2023/03/11 01:50:40;;;;;;;;;;;7.00;87.40;;;-151.14;100.00;62537.16;5090208;28;19920;-82
2023/03/11 01:53:08;;;;;;;;;;;7.00;87.40;;;-151.14;100.00;62537.16;5072799;28;19920;-82
2023/03/11 01:55:36;;;;;;;;;;;7.00;87.40;;;-151.14;100.00;62537.16;5073501;28;19921;-83
2023/03/11 01:58:07;;;;;;;;;;;7.00;87.40;;;-151.14;100.00;62537.16;5076616;28;19921;-82
2023/03/11 02:00:36;;;;;;;;;;;7.00;87.40;;;-151.14;100.00;62537.16;5076595;28;19920;-82
2023/03/11 02:03:08;;;;;;;;;;;7.00;87.40;;;-151.14;100.00;62537.16;5093091;28;19926;-82
2023/03/11 02:05:36;;;;;;;;;;;7.00;87.40;;;-151.14;100.00;62537.16;5093335;28;20120;-82
2023/03/11 02:08:04;;;;;;;;;;;7.00;87.40;;;-151.14;100.00;62537.16;5093169;28;19921;-82
2023/03/11 02:10:35;;;;;;;;;;;7.00;87.40;;;-151.14;100.00;62537.16;5076497;28;19927;-82
2023/03/11 02:13:03;;;;;;;;;;;7.00;87.40;;;-151.14;100.00;62537.16;5076048;28;19926;-83
2023/03/11 02:15:31;;;;;;;;;;;7.00;87.50;;;-151.14;100.00;62537.16;5076453;28;19920;-83
2023/03/11 02:18:01;;;;;;;;;;;7.00;87.40;;;-151.14;100.00;62537.16;5076213;28;20115;-82
2023/03/11 02:20:35;;;;;;;;;;;7.00;87.40;;;-151.14;100.00;62537.16;5093133;28;19928;-83
2023/03/11 02:23:03;;;;;;;;;;;7.00;87.40;;;-151.14;100.00;62537.16;5092911;28;20107;-82
2023/03/11 02:25:34;;;;;;;;;;;7.00;87.40;;;-151.14;100.00;62537.16;5092983;28;19920;-82
2023/03/11 02:28:04;;;;;;;;;;;7.00;87.40;;;-151.14;100.00;62537.16;5076149;28;19943;-83
2023/03/11 02:30:33;;;;;;;;;;;7.00;87.40;;;-151.14;100.00;62537.16;5076196;28;20110;-83
2023/03/11 02:33:00;;;;;;;;;;;7.00;87.40;;;-151.14;100.00;62537.16;5092545;28;20115;-83
2023/03/11 02:35:30;;;;;;;;;;;7.00;87.40;;;-151.14;100.00;62537.16;5089408;28;19921;-83
2023/03/11 02:37:58;;;;;;;;;;;7.00;87.40;;;-151.14;100.00;62537.16;5055967;28;19924;-83
2023/03/11 02:40:41;;;;;;;;;;;7.00;87.40;;;-151.14;100.00;62537.16;5059316;28;19926;-83
2023/03/11 02:43:12;;;;;;;;;;;7.00;87.40;;;-151.14;100.00;62537.16;5092468;28;20233;-83
2023/03/11 02:45:41;;;;;;;;;;;7.00;87.40;;;-151.14;100.00;62537.16;5075971;28;19927;-82
2023/03/11 02:48:09;;;;;;;;;;;7.00;87.50;;;-151.14;100.00;62537.16;5092763;28;19920;-82
2023/03/11 02:50:37;;;;;;;;;;;7.00;87.50;;;-151.14;100.00;62537.16;5109579;28;20230;-83
2023/03/11 02:53:06;;;;;;;;;;;7.00;87.50;;;-151.14;100.00;62537.16;5075586;28;19927;-82
2023/03/11 02:55:34;;;;;;;;;;;7.00;87.50;;;-151.14;100.00;62537.16;5075801;28;19920;-82
2023/03/11 02:58:02;;;;;;;;;;;7.00;87.60;;;-151.14;100.00;62537.16;5075758;28;19920;-83
2023/03/11 03:00:32;;;;;;;;;;;7.00;87.50;;;-151.14;100.00;62537.16;5075566;28;20212;-83
2023/03/11 03:03:05;;;;;;;;;;;7.00;87.40;;;-151.14;100.00;62537.16;5092037;28;19927;-83
2023/03/11 03:05:33;;;;;;;;;;;7.00;87.40;;;-151.14;100.00;62537.16;5092479;28;19920;-83
2023/03/11 03:08:02;;;;;;;;;;;7.00;87.40;;;-151.14;100.00;62537.16;5091313;28;19942;-83
2023/03/11 03:10:30;;;;;;;;;;;7.00;87.50;;;-151.14;100.00;62537.16;5075193;28;19929;-82
2023/03/11 03:12:59;;;;;;;;;;;7.00;87.50;;;-151.14;100.00;62537.16;5090725;28;19927;-82
2023/03/11 03:15:27;;;;;;;;;;;7.00;87.40;;;-151.14;100.00;62537.16;5075367;28;19920;-82
2023/03/11 03:17:56;;;;;;;;;;;7.00;87.50;;;-151.14;100.00;62537.16;5092323;28;19926;-83
2023/03/11 03:20:25;;;;;;;;;;;7.00;87.50;;;-151.14;100.00;62537.16;5092248;28;19926;-83
2023/03/11 03:22:56;;;;;;;;;;;7.00;87.40;;;-151.14;100.00;62537.16;5091820;28;19934;-82
2023/03/11 03:25:28;;;;;;;;;;;7.00;87.50;;;-151.14;100.00;62537.16;5075316;28;19920;-82
2023/03/11 03:27:58;;;;;;;;;;;7.00;87.60;;;-151.14;100.00;62537.16;5075335;28;20215;-83
2023/03/11 03:30:28;;;;;;;;;;;7.00;87.40;;;;;;5109111;28;20359;-83
2023/03/11 03:32:58;;;;;;;;;;;7.00;87.50;;;-151.14;100.00;62537.16;5091735;28;19928;-82
2023/03/11 03:35:26;;;;;;;;;;;7.00;87.50;;;-151.14;100.00;62537.16;5075290;28;19926;-82
2023/03/11 03:38:13;;;;;;;;;;;7.00;87.50;;;-151.14;100.00;62537.16;5075243;28;20126;-83
2023/03/11 03:40:46;;;;;;;;;;;7.00;87.50;;;-151.14;100.00;62537.16;5092175;28;20212;-83
2023/03/11 03:43:15;;;;;;;;;;;7.00;87.50;;;-151.14;100.00;62537.16;5074805;28;19927;-82
2023/03/11 03:45:45;;;;;;;;;;;7.00;87.50;;;-151.14;100.00;62537.16;5091841;28;19920;-83
2023/03/11 03:48:15;;;;;;;;;;;7.00;87.60;;;-151.14;100.00;62537.16;5108889;28;19920;-82
2023/03/11 03:50:46;;;;;;;;;;;7.00;87.60;;;-151.14;100.00;62537.16;5091779;28;19920;-83
2023/03/11 03:53:17;;;;;;;;;;;7.00;87.50;;;-151.14;100.00;62537.16;5074401;28;20115;-82
2023/03/11 03:55:45;;;;;;;;;;;7.00;87.50;;;18.74;100.00;62537.16;5075068;28;19920;-82
2023/03/11 03:58:13;;;;;;;;;;;7.00;87.50;;;-151.14;100.00;62537.16;5091465;28;19927;-83
2023/03/11 04:00:41;;;;;;;;;;;7.00;87.50;;;-151.14;100.00;62537.16;5091568;28;19920;-83
2023/03/11 04:03:09;;;;;;;;;;;7.00;87.50;;;-151.14;100.00;62537.16;5074232;28;19927;-83
2023/03/11 04:05:51;;;;;;;;;;;7.00;87.40;;;-151.14;100.00;62537.16;5091505;28;20207;-82
2023/03/11 04:08:19;;;;;;;;;;;7.00;87.40;;;-151.14;100.00;62537.16;5091328;28;19928;-82
2023/03/11 04:10:56;;;;;;;;;;;7.00;87.50;;;-151.14;100.00;62537.16;5074799;28;19920;-83
2023/03/11 04:13:24;;;;;;;;;;;7.00;87.50;;;-151.14;100.00;62537.16;5091110;28;19926;-83
2023/03/11 04:15:52;;;;;;;;;;;7.00;87.40;;;-151.14;100.00;62537.16;5091358;28;19920;-83
2023/03/11 04:18:21;;;;;;;;;;;7.00;87.40;;;-151.14;100.00;62537.16;5090924;28;19927;-82
2023/03/11 04:20:51;;;;;;;;;;;7.00;87.40;;;-151.14;100.00;62537.16;5108244;28;19926;-83
2023/03/11 04:23:19;;;;;;;;;;;7.00;87.40;;;-151.14;100.00;62537.16;5070408;28;19921;-83
2023/03/11 04:25:47;;;;;;;;;;;7.00;87.50;;;-151.14;100.00;62537.16;5054345;28;19921;-83
2023/03/11 04:28:15;;;;;;;;;;;7.00;87.40;;;-151.14;100.00;62537.16;5054172;28;19920;-82
2023/03/11 04:30:44;;;;;;;;;;;7.00;87.40;;;-151.14;100.00;62537.16;5054425;28;19928;-83
2023/03/11 04:33:12;;;;;;;;;;;7.00;87.40;;;28.66;100.00;62537.16;5070493;28;19920;-83
2023/03/11 04:35:40;;;;;;;;;;;7.00;87.50;;;-151.14;100.00;62537.16;5087813;28;19920;-83
2023/03/11 04:38:10;;;;;;;;;;;7.00;87.50;;;-151.14;100.00;62537.16;5064018;28;20119;-82
2023/03/11 04:40:38;;;;;;;;;;;7.00;87.50;;;-151.14;100.00;62537.16;5091027;28;19927;-83
2023/03/11 04:43:06;;;;;;;;;;;7.00;87.40;;;-151.14;100.00;62537.16;5090287;28;19920;-83
2023/03/11 04:45:35;;;;;;;;;;;7.00;87.30;;;-151.14;100.00;62537.16;5092046;28;19920;-83
2023/03/11 04:48:04;;;;;;;;;;;7.00;87.40;;;-151.14;100.00;62537.16;5073909;28;20097;-83
2023/03/11 04:50:33;;;;;;;;;;;7.00;87.30;;;-151.14;100.00;62537.16;5091149;28;19939;-82
2023/03/11 04:53:01;;;;;;;;;;;7.00;87.30;;;-151.14;100.00;62537.16;5090344;28;19920;-83
2023/03/11 04:55:32;;;;;;;;;;;7.00;87.40;;;-151.14;100.00;62537.16;5090750;28;19941;-83
2023/03/11 04:58:00;;;;;;;;;;;7.00;87.40;;;-151.14;100.00;62537.16;5073697;28;19927;-83
2023/03/11 05:00:29;;;;;;;;;;;7.00;87.40;;;-151.14;100.00;62537.16;5074241;28;20112;-84
2023/03/11 05:03:04;;;;;;;;;;;7.00;87.40;;;-151.14;100.00;62537.16;5073298;28;19920;-83
2023/03/11 05:05:32;;;;;;;;;;;7.00;87.40;;;-151.14;100.00;62537.16;5090649;28;19920;-83
2023/03/11 05:08:00;;;;;;;;;;;7.00;87.40;;;-151.14;100.00;62537.16;5073704;28;20212;-83
2023/03/11 05:10:31;;;;;;;;;;;7.00;87.40;;;-151.14;100.00;62537.16;5090747;28;19934;-82
2023/03/11 05:13:02;;;;;;;;;;;7.00;87.40;;;-151.14;100.00;62537.16;5090120;28;19928;-82
2023/03/11 05:15:33;;;;;;;;;;;7.00;87.40;;;-151.14;100.00;62537.16;5090650;28;19920;-83
2023/03/11 05:18:03;;;;;;;;;;;7.00;87.40;;;-151.14;100.00;62537.16;5073601;28;19946;-82
2023/03/11 05:20:32;;;;;;;;;;;7.00;87.40;;;-151.14;100.00;62537.16;5090492;28;20089;-83
2023/03/11 05:23:00;;;;;;;;;;;7.00;87.50;;;-151.14;100.00;62537.16;5106762;28;19920;-83
2023/03/11 05:25:32;;;;;;;;;;;7.00;87.40;;;-151.14;100.00;62537.16;5090408;28;19926;-83
2023/03/11 05:28:00;;;;;;;;;;;7.00;87.40;;;-151.14;100.00;62537.16;5073443;28;19920;-83
2023/03/11 05:30:29;;;;;;;;;;;7.00;87.30;;;-151.14;100.00;62537.16;5089728;28;20230;-83
2023/03/11 05:32:58;;;;;;;;;;;7.00;87.30;;;-151.14;100.00;62537.16;5089740;28;19920;-83
2023/03/11 05:35:26;;;;;;;;;;;7.00;87.40;;;-151.14;100.00;62537.16;5090179;28;19941;-83
2023/03/11 05:37:54;;;;;;;;;;;7.00;87.40;;;-151.14;100.00;62537.16;5073291;28;19920;-83
2023/03/11 05:40:24;;;;;;;;;;;7.00;87.40;;;18.08;100.00;62537.16;5073381;28;19926;-83
2023/03/11 05:42:54;;;;;;;;;;;7.00;87.40;;;-151.14;100.00;62537.16;5072806;28;19934;-83
2023/03/11 05:45:22;;;;;;;;;;;7.00;87.40;;;-151.14;100.00;62537.16;5073509;28;20119;-83
2023/03/11 05:47:52;;;;;;;;;;;7.00;87.40;;;;;;5073414;28;20204;-83
2023/03/11 05:50:20;;;;;;;;;;;7.00;87.40;;;-151.14;100.00;62537.16;5090206;28;19920;-83
2023/03/11 05:52:49;;;;;;;;;;;7.00;87.40;;;-151.14;100.00;62537.16;5106329;28;19920;-83
2023/03/11 05:55:18;;;;;;;;;;;7.00;87.40;;;-151.14;100.00;62537.16;5089972;28;19920;-83
2023/03/11 06:00:55;;;;;;;;;;;7.00;87.40;;;-151.14;100.00;62537.16;5044851;28;19920;-83
2023/03/11 06:03:23;;;;;;;;;;;7.00;87.40;;;-151.14;100.00;62537.16;5069190;28;19921;-83
2023/03/11 06:05:52;;;;;;;;;;;7.00;87.40;;;-151.14;100.00;62537.16;5069913;28;19927;-82
2023/03/11 06:08:20;;;;;;;;;;;7.00;87.40;;;-151.14;100.00;62537.16;5070607;28;19921;-83
2023/03/11 06:10:48;;;;;;;;;;;7.00;87.40;;;-151.14;100.00;62537.16;5085810;28;19928;-83
2023/03/11 06:13:17;;;;;;;;;;;7.00;87.40;;;-151.14;100.00;62537.16;5052467;28;19921;-82
2023/03/11 06:15:51;;;;;;;;;;;7.00;87.40;;;-151.14;100.00;62537.16;5069606;28;19920;-83
2023/03/11 06:18:22;;;;;;;;;;;7.00;87.40;;;-151.14;100.00;62537.16;5069551;28;20208;-83
2023/03/11 06:20:49;;;;;;;;;;;7.00;87.30;;;-151.14;100.00;62537.16;5069570;28;19990;-83
2023/03/11 06:23:17;;;;;;;;;;;7.00;88.20;;;-151.14;100.00;62537.16;5068885;28;19926;-83
2023/03/11 06:25:49;;;;;;;;;;;7.00;87.40;;;-151.14;100.00;62537.16;5069504;28;19920;-83
2023/03/11 06:28:17;;;;;;;;;;;7.00;87.40;;;-151.14;100.00;62537.16;5068727;28;19934;-83
2023/03/11 06:30:46;;;;;;;;;;;7.00;87.40;;;-151.14;100.00;62537.16;5069380;28;20212;-83
2023/03/11 06:33:16;;;;;;;;;;;7.00;87.40;;;-151.14;100.00;62537.16;5052130;28;20066;-82
2023/03/11 06:35:55;;;;;;;;;;;7.00;87.40;;;-151.14;100.00;62537.16;5069847;28;19921;-82
2023/03/11 06:38:23;;;;;;;;;;;7.00;87.30;;;18.08;100.00;62537.16;5069152;28;19920;-83
2023/03/11 06:40:51;;;;;;;;;;;7.00;87.30;;;-151.14;100.00;62537.16;5069379;28;19921;-83
2023/03/11 06:43:19;;;;;;;;;;;7.00;87.20;;;-151.14;100.00;62537.16;5053520;28;19921;-83
2023/03/11 06:45:48;;;;;;;;;;;7.00;87.20;;;-151.14;100.00;62537.16;5072740;28;19924;-83
2023/03/11 06:48:16;;;;;;;;;;;7.00;87.20;;;-151.14;100.00;62537.16;5072480;28;19920;-83
2023/03/11 06:50:46;;;;;;;;;;;7.00;87.20;;;-151.14;100.00;62537.16;5089261;28;19927;-83
2023/03/11 06:53:14;;;;;;;;;;;7.00;87.20;;;-151.14;100.00;62537.16;5071356;28;19927;-83
2023/03/11 06:55:42;;;;;;;;;;;7.10;87.40;;;-151.14;100.00;62537.16;5055819;28;19924;-83
2023/03/11 06:58:10;;;;;;;;;;;7.10;87.40;;;-151.14;100.00;62537.16;5072405;28;19921;-83
2023/03/11 07:00:38;;;;;;;;;;;7.00;87.30;;;-151.14;100.00;62537.16;5092570;28;19931;-83
2023/03/11 07:03:06;;;;;;;;;;;7.10;87.40;;;-151.14;100.00;62537.16;5091999;28;19926;-82
2023/03/11 07:05:34;;;;;;;;;;;7.10;87.40;;;-151.14;100.00;62537.16;5093737;28;19926;-83
2023/03/11 07:08:12;;;;;;;;;;;7.00;87.30;;;-151.14;100.00;62537.16;5075831;28;19920;-83
2023/03/11 07:10:41;;;;;;;;;;;7.10;87.30;;;-151.14;100.00;62537.16;5049727;28;19920;-88
2023/03/11 07:13:09;;;;;;;;;;;7.10;87.30;;;-151.14;100.00;62537.16;5051830;28;19920;-87
2023/03/11 07:15:37;;;;;;;;;;;7.00;87.20;;;-151.14;100.00;62537.16;5035765;28;19921;-87
2023/03/11 07:18:05;;;;;;;;;;;7.10;87.20;;;-151.14;100.00;62537.16;5052181;28;20204;-87
2023/03/11 07:20:33;;;;;;;;;;;7.10;87.20;;;18.08;100.00;62537.16;5052180;28;19921;-87
2023/03/11 07:23:01;;;;;;;;;;;7.10;87.20;;;-151.14;100.00;62537.16;5051484;28;19920;-88
2023/03/11 07:25:29;;;;;;;;;;;7.10;87.20;;;-151.14;100.00;62537.16;5035567;28;19927;-88
2023/03/11 07:27:59;;;;;;;;;;;7.10;87.10;;;-151.14;100.00;62537.16;5035441;28;20216;-88
2023/03/11 07:30:27;;;;;;;;;;;7.10;87.20;;;-151.14;100.00;62537.16;5051873;28;20112;-88
2023/03/11 07:32:55;;;;;;;;;;;7.10;87.20;;;187.61;100.00;62537.16;5051639;28;19943;-87
2023/03/11 07:35:23;;;;;;;;;;;7.10;87.20;;;-151.14;100.00;62537.16;5032019;28;19921;-87
2023/03/11 07:37:51;;;;;;;;;;;7.10;87.20;;;-151.14;100.00;62537.16;5032068;28;19921;-87
2023/03/11 07:40:19;;;;;;;;;;;7.10;87.20;;;-151.14;100.00;62537.16;5031821;28;19928;-87
2023/03/11 07:42:47;;;;;;;;;;;7.10;87.10;;;-151.14;100.00;62537.16;5031404;28;19921;-88
2023/03/11 07:45:16;;;;;;;;;;;7.10;87.10;;;-151.14;100.00;62537.16;5015480;28;19921;-87
2023/03/11 07:47:44;;;;;;;;;;;7.10;87.10;;;-151.14;100.00;62537.16;5031912;28;19921;-87
2023/03/11 07:50:12;;;;;;;;;;;7.10;87.10;;;-151.14;100.00;62537.16;5048319;28;20209;-88
2023/03/11 07:52:40;;;;;;;;;;;7.10;87.10;;;-151.14;100.00;62537.16;5031102;28;19940;-88
2023/03/11 07:55:09;;;;;;;;;;;7.10;87.00;;;-151.14;100.00;62537.16;5032491;28;19936;-86
2023/03/11 07:57:37;;;;;;;;;;;7.10;87.10;;;-151.14;100.00;62537.16;5048297;28;19922;-87
2023/03/11 08:00:05;;;;;;;;;;;7.10;87.00;;;-151.14;100.00;62537.16;5031502;28;19927;-87
2023/03/11 08:02:41;;;;;;;;;;;7.10;87.00;;;-151.14;100.00;62537.16;5031207;28;19921;-87
2023/03/11 08:05:10;;;;;;;;;;;7.10;87.00;;;-151.14;100.00;62537.16;5031523;28;19921;-88
2023/03/11 08:07:38;;;;;;;;;;;7.10;87.00;;;-151.14;100.00;62537.16;5015133;28;19921;-87
2023/03/11 08:10:06;;;;;;;;;;;7.20;87.00;;;18.08;100.00;62537.16;5031390;28;19921;-87
2023/03/11 08:12:34;;;;;;;;;;;7.20;87.00;;;-151.14;100.00;62537.16;5014665;28;19921;-88
2023/03/11 08:15:03;;;;;;;;;;;7.10;86.90;;;-151.14;100.00;62537.16;5031342;28;19921;-87
2023/03/11 08:17:31;;;;;;;;;;;7.10;86.90;;;-151.14;100.00;62537.16;5031490;28;19921;-87
2023/03/11 08:20:00;;;;;;;;;;;7.10;87.00;;;-151.14;100.00;62537.16;5031107;28;19927;-87
2023/03/11 08:22:28;;;;;;;;;;;7.20;86.90;;;7.49;100.00;62537.16;5014911;28;19927;-87
2023/03/11 08:24:56;;;;;;;;;;;7.10;87.00;;;-151.14;100.00;62537.16;5014073;28;19921;-88
2023/03/11 08:27:24;;;;;;;;;;;7.10;87.00;;;-151.14;100.00;62537.16;5031313;28;19928;-87
2023/03/11 08:29:52;;;;;;;;;;;7.10;87.00;;;-151.14;100.00;62537.16;5031090;28;19927;-87
2023/03/11 08:32:20;;;;;;;;;;;7.10;87.00;;;-151.14;100.00;62537.16;5031282;28;19935;-87
2023/03/11 08:34:48;;;;;;;;;;;7.10;87.00;;;-151.14;100.00;62537.16;5030605;28;20226;-87
2023/03/11 08:37:18;;;;;;;;;;;7.10;87.00;;;-151.14;100.00;62537.16;5032201;28;19921;-87
2023/03/11 08:39:45;;;;;;;;;;;7.10;87.00;;;-151.14;100.00;62537.16;5031133;28;19927;-87
2023/03/11 08:42:13;;;;;;;;;;;7.10;87.80;;;-151.14;100.00;62537.16;5030893;28;19927;-87
2023/03/11 08:44:41;;;;;;;;;;;7.20;87.10;;;-151.14;100.00;62537.16;5030455;28;19921;-87
2023/03/11 08:47:09;;;;;;;;;;;7.20;87.00;;;-151.14;100.00;62537.16;5014648;28;19927;-87
2023/03/11 08:49:37;;;;;;;;;;;7.20;87.00;;;-151.14;100.00;62537.16;5030753;28;19921;-87
2023/03/11 08:52:05;;;;;;;;;;;7.20;87.00;;;-151.14;100.00;62537.16;5047521;28;19921;-87
2023/03/11 08:54:35;;;;;;;;;;;7.20;87.00;;;-151.14;100.00;62537.16;5030100;28;20441;-86
2023/03/11 08:57:03;;;;;;;;;;;7.10;87.00;;;-151.14;100.00;62537.16;5030974;28;19921;-87
2023/03/11 08:59:31;;;;;;;;;;;7.20;87.00;;;-151.14;100.00;62537.16;5030565;28;20234;-87
2023/03/11 09:01:59;;;;;;;;;;;7.20;87.10;;;-151.14;100.00;62537.16;5030817;28;19921;-87
2023/03/11 09:04:27;;;;;;;;;;;7.20;87.10;;;-151.14;100.00;62537.16;5029942;28;19921;-87
2023/03/11 09:06:55;;;;;;;;;;;7.20;87.10;;;-151.14;100.00;62537.16;5029754;28;20208;-87
2023/03/11 09:09:23;;;;;;;;;;;7.20;87.00;;;-151.14;100.00;62537.16;5030523;28;19921;-87
2023/03/11 09:11:52;;;;;;;;;;;7.20;87.10;;;-151.14;100.00;62537.16;5014278;28;20123;-87
2023/03/11 09:14:20;;;;;;;;;;;7.20;87.10;;;-151.14;100.00;62537.16;5013616;28;20236;-87
2023/03/11 09:16:48;;;;;;;;;;;7.20;87.10;;;-151.14;100.00;62537.16;5032874;28;19921;-87
2023/03/11 09:19:16;;;;;;;;;;;7.20;87.10;;;18.08;100.00;62537.16;5050375;28;19943;-87
2023/03/11 09:21:44;;;;;;;;;;;7.20;87.00;;;-151.14;100.00;62537.16;5033734;28;19945;-87
2023/03/11 09:24:12;;;;;;;;;;;7.20;87.10;;;-151.14;100.00;62537.16;5033215;28;19921;-87
2023/03/11 09:26:40;;;;;;;;;;;7.20;87.00;;;-151.14;100.00;62537.16;5050447;28;19928;-87
2023/03/11 09:29:09;;;;;;;;;;;7.20;87.10;;;-151.14;100.00;62537.16;5033628;28;19921;-87
2023/03/11 09:31:37;;;;;;;;;;;7.20;87.10;;;19.40;100.00;62537.16;5033624;28;19943;-87
2023/03/11 09:34:05;;;;;;;;;;;7.20;87.00;;;-151.14;100.00;62537.16;5049506;28;19921;-87
2023/03/11 09:36:33;;;;;;;;;;;7.20;87.10;;;-151.14;100.00;62537.16;5033539;28;19921;-86
2023/03/11 09:39:01;;;;;;;;;;;7.20;87.10;;;-151.14;100.00;62537.16;5051171;28;19925;-87
2023/03/11 09:41:34;;;;;;;;;;;7.20;87.10;;;-151.14;100.00;62537.16;5033260;28;19921;-87
2023/03/11 09:44:11;;;;;;;;;;;7.20;87.00;;;-151.14;100.00;62537.16;5049578;28;19927;-87
2023/03/11 09:47:18;;;;;;;;;;;7.20;87.10;;;-151.14;100.00;62537.16;5033374;28;19927;-87
2023/03/11 09:50:06;;;;;;;;;;;7.20;87.00;;;-151.14;100.00;62537.16;5029905;28;19921;-87
2023/03/11 09:52:38;;;;;;;;;;;7.20;86.90;;;187.61;100.00;62537.16;5013330;28;19928;-88
2023/03/11 09:55:07;;;;;;;;;;;7.20;87.10;;;-151.14;100.00;62537.16;5013514;28;19927;-87
2023/03/11 09:57:35;;;;;;;;;;;7.20;87.10;;;-151.14;100.00;62537.16;5013614;28;19927;-87
2023/03/11 10:00:06;;;;;;;;;;;7.20;86.90;;;-151.14;100.00;62537.16;5013544;28;19921;-88
2023/03/11 10:02:40;;;;;;;;;;;7.20;87.00;;;-151.14;100.00;62537.16;5029403;28;19921;-87
2023/03/11 10:05:09;;;;;;;;;;;7.20;87.00;;;-151.14;100.00;62537.16;5029911;28;19922;-87
2023/03/11 10:07:40;;;;;;;;;;;7.20;87.00;;;-151.14;100.00;62537.16;5013602;28;19935;-87
2023/03/11 10:10:12;;;;;;;;;;;7.20;87.90;;;-151.14;100.00;62537.16;5013276;28;19921;-87
2023/03/11 10:12:45;;;;;;;;;;;7.20;87.10;;;-151.14;100.00;62537.16;5029202;28;19921;-87
2023/03/11 10:15:18;;;;;;;;;;;7.20;87.10;;;-151.14;100.00;62537.16;5029824;28;19921;-87
2023/03/11 10:17:53;;;;;;;;;;;7.20;87.10;;;-151.14;100.00;62537.16;5031923;28;20124;-87
2023/03/11 10:20:21;;;;;;;;;;;7.20;87.10;;;-151.14;100.00;62537.16;5033023;28;19921;-87
2023/03/11 10:22:53;;;;;;;;;;;7.20;87.10;;;-151.14;100.00;62537.16;5016018;28;19935;-87
2023/03/11 10:25:22;;;;;;;;;;;7.20;87.10;;;-151.14;100.00;62537.16;5033099;28;19927;-87
2023/03/11 10:27:51;;;;;;;;;;;7.20;87.90;;;-151.14;100.00;62537.16;5016647;28;19922;-87
2023/03/11 10:30:24;;;;;;;;;;;7.20;87.20;;;7.49;100.00;62537.16;5049649;28;19921;-87
2023/03/11 10:32:54;;;;;;;;;;;7.20;87.10;;;-151.14;100.00;62537.16;5033036;28;19927;-87
2023/03/11 10:35:24;;;;;;;;;;;7.20;87.90;;;-151.14;100.00;62537.16;5036392;28;19921;-87
2023/03/11 10:37:53;;;;;;;;;;;7.20;87.20;;;-151.14;100.00;62537.16;5052795;28;19921;-87
2023/03/11 10:40:28;;;;;;;;;;;7.20;87.30;;;-151.14;100.00;62537.16;5049396;28;20116;-87
2023/03/11 10:42:57;;;;;;;;;;;7.20;87.30;;;-151.14;100.00;62537.16;5032253;28;19929;-88
2023/03/11 10:45:26;;;;;;;;;;;7.20;87.40;;;-151.14;100.00;62537.16;5033069;28;20124;-87
2023/03/11 10:47:56;;;;;;;;;;;7.20;87.30;;;-151.14;100.00;62537.16;5049082;28;19921;-87
2023/03/11 10:50:24;;;;;;;;;;;7.20;87.30;;;-151.14;100.00;62537.16;5052431;28;19928;-87
2023/03/11 10:53:06;;;;;;;;;;;7.20;87.30;;;-151.14;100.00;62537.16;5051909;28;19935;-87
2023/03/11 10:55:34;;;;;;;;;;;7.20;87.20;;;-151.14;100.00;62537.16;5035844;28;19927;-87
2023/03/11 10:58:07;;;;;;;;;;;7.20;87.20;;;-151.14;100.00;62537.16;5052663;28;20119;-87
2023/03/11 11:00:36;;;;;;;;;;;7.20;87.20;;;-151.14;100.00;62537.16;5068731;28;19928;-87
2023/03/11 11:03:05;;;;;;;;;;;7.20;87.20;;;-151.14;100.00;62537.16;5035127;28;19921;-87
2023/03/11 11:05:34;;;;;;;;;;;7.20;87.20;;;-151.14;100.00;62537.16;5052453;28;19927;-87
2023/03/11 11:08:03;;;;;;;;;;;7.20;87.20;;;-151.14;100.00;62537.16;5052116;28;19921;-87
2023/03/11 11:10:32;;;;;;;;;;;7.20;87.20;;;-151.14;100.00;62537.16;5053362;28;19921;-87
2023/03/11 11:13:01;;;;;;;;;;;7.20;87.20;;;-151.14;100.00;62537.16;5051691;28;19978;-87
2023/03/11 11:15:30;;;;;;;;;;;7.20;87.20;;;-151.14;100.00;62537.16;5035592;28;19927;-87
2023/03/11 11:18:00;;;;;;;;;;;7.20;87.20;;;-151.14;100.00;62537.16;5035492;28;19927;-87